createdAt,value
2022-08-02T00:00:55.529Z,20.50
2022-08-02T00:03:23.726Z,20.50
2022-08-02T00:05:53.074Z,20.40
2022-08-02T00:08:21.806Z,20.40
2022-08-02T00:10:48.876Z,20.30
2022-08-02T00:13:15.586Z,20.20
2022-08-02T00:15:42.284Z,20.20
2022-08-02T00:18:08.982Z,20.20
2022-08-02T00:20:35.741Z,20.10
2022-08-02T00:23:02.458Z,20.10
2022-08-02T00:25:29.248Z,20.10
2022-08-02T00:27:55.917Z,20.00
2022-08-02T00:30:22.620Z,20.00
2022-08-02T00:32:49.346Z,20.00
2022-08-02T00:35:16.006Z,20.00
2022-08-02T00:37:42.668Z,19.90
2022-08-02T00:40:10.026Z,19.80
2022-08-02T00:42:36.900Z,19.80
2022-08-02T00:45:03.795Z,19.80
2022-08-02T00:47:30.469Z,19.80
2022-08-02T00:49:57.124Z,19.80
2022-08-02T00:52:24.282Z,19.70
2022-08-02T00:54:51.001Z,19.70
2022-08-02T00:57:19.610Z,19.70
2022-08-02T00:59:46.290Z,19.60
2022-08-02T01:02:16.449Z,19.60
2022-08-02T01:04:43.775Z,19.50
2022-08-02T01:07:13.035Z,19.40
2022-08-02T01:09:41.948Z,19.40
2022-08-02T01:12:09.309Z,19.30
2022-08-02T01:14:36.255Z,19.30
2022-08-02T01:17:17.878Z,19.30
2022-08-02T01:20:05.583Z,19.20
2022-08-02T01:23:13.337Z,19.20
2022-08-02T01:25:58.763Z,19.10
2022-08-02T01:29:08.745Z,19.00
2022-08-02T01:31:40.916Z,19.00
2022-08-02T01:34:30.768Z,18.90
2022-08-02T01:37:11.446Z,18.90
2022-08-02T01:39:38.666Z,18.90
2022-08-02T01:42:05.342Z,18.80
2022-08-02T01:44:34.683Z,18.80
2022-08-02T01:47:05.717Z,18.70
2022-08-02T01:49:32.999Z,18.70
2022-08-02T01:52:00.426Z,18.70
2022-08-02T01:54:29.397Z,18.60
2022-08-02T01:56:56.051Z,18.50
2022-08-02T01:59:23.125Z,18.50
2022-08-02T02:01:51.219Z,18.50
2022-08-02T02:04:18.055Z,18.50
2022-08-02T02:06:45.292Z,18.50
2022-08-02T02:09:12.817Z,18.40
2022-08-02T02:12:12.117Z,18.40
2022-08-02T02:14:26.242Z,18.40
2022-08-02T02:16:52.880Z,18.40
2022-08-02T02:19:21.398Z,18.30
2022-08-02T02:21:49.407Z,18.30
2022-08-02T02:24:16.014Z,18.30
2022-08-02T02:26:50.698Z,18.30
2022-08-02T02:29:20.329Z,18.30
2022-08-02T02:31:46.967Z,18.20
2022-08-02T02:34:25.296Z,18.20
2022-08-02T02:36:51.995Z,18.20
2022-08-02T02:39:20.784Z,18.10
2022-08-02T02:41:47.417Z,18.10
2022-08-02T02:44:15.951Z,18.10
2022-08-02T02:46:42.617Z,18.00
2022-08-02T02:49:10.433Z,18.10
2022-08-02T02:51:39.349Z,18.00
2022-08-02T02:54:32.848Z,18.00
2022-08-02T02:56:53.175Z,18.00
2022-08-02T02:59:19.870Z,18.00
2022-08-02T03:01:56.538Z,17.90
2022-08-02T03:04:24.120Z,17.90
2022-08-02T03:06:50.775Z,17.90
2022-08-02T03:09:17.404Z,17.90
2022-08-02T03:11:44.093Z,17.90
2022-08-02T03:14:11.398Z,17.80
2022-08-02T03:16:46.337Z,17.80
2022-08-02T03:19:13.064Z,17.80
2022-08-02T03:21:39.721Z,17.80
2022-08-02T03:24:07.005Z,17.70
2022-08-02T03:26:33.763Z,17.70
2022-08-02T03:29:00.496Z,17.60
2022-08-02T03:31:36.786Z,17.60
2022-08-02T03:34:03.440Z,17.60
2022-08-02T03:36:32.360Z,17.60
2022-08-02T03:39:00.076Z,17.60
2022-08-02T03:41:27.778Z,17.60
2022-08-02T03:43:54.521Z,17.60
2022-08-02T03:46:22.239Z,17.50
2022-08-02T03:48:49.715Z,17.50
2022-08-02T03:51:16.486Z,17.50
2022-08-02T03:53:43.154Z,17.50
2022-08-02T03:56:09.862Z,17.50
2022-08-02T03:58:36.503Z,17.50
2022-08-02T04:01:03.192Z,17.50
2022-08-02T04:03:29.911Z,17.40
2022-08-02T04:06:00.773Z,17.40
2022-08-02T04:08:36.901Z,17.30
2022-08-02T04:11:04.662Z,17.30
2022-08-02T04:13:37.198Z,17.30
2022-08-02T04:16:16.058Z,17.40
2022-08-02T04:18:50.193Z,17.30
2022-08-02T04:21:18.068Z,17.30
2022-08-02T04:23:45.064Z,17.30
2022-08-02T04:26:11.685Z,17.30
2022-08-02T04:28:39.997Z,17.30
2022-08-02T04:31:06.616Z,17.30
2022-08-02T04:33:33.251Z,17.20
2022-08-02T04:35:59.987Z,17.20
2022-08-02T04:38:26.758Z,17.20
2022-08-02T04:40:54.462Z,17.20
2022-08-02T04:43:21.352Z,17.20
2022-08-02T04:45:52.927Z,17.20
2022-08-02T04:48:20.295Z,17.20
2022-08-02T04:50:46.977Z,17.10
2022-08-02T04:53:13.648Z,17.10
2022-08-02T04:55:40.287Z,17.10
2022-08-02T04:58:36.916Z,17.10
2022-08-02T05:00:53.693Z,17.10
2022-08-02T05:03:20.363Z,17.10
2022-08-02T05:05:46.996Z,17.20
2022-08-02T05:08:15.067Z,17.20
2022-08-02T05:10:41.814Z,17.20
2022-08-02T05:13:08.443Z,17.30
2022-08-02T05:15:35.092Z,17.30
2022-08-02T05:18:02.022Z,17.40
2022-08-02T05:20:29.286Z,17.40
2022-08-02T05:22:55.954Z,17.50
2022-08-02T05:25:22.731Z,17.50
2022-08-02T05:27:49.361Z,17.50
2022-08-02T05:30:15.986Z,17.60
2022-08-02T05:32:49.354Z,17.60
2022-08-02T05:35:23.250Z,17.60
2022-08-02T05:37:50.249Z,17.60
2022-08-02T05:40:17.512Z,17.70
2022-08-02T05:42:52.886Z,17.70
2022-08-02T05:45:19.620Z,17.70
2022-08-02T05:47:46.374Z,17.80
2022-08-02T05:50:12.998Z,17.80
2022-08-02T05:52:48.645Z,17.90
2022-08-02T05:55:18.887Z,17.90
2022-08-02T05:57:48.619Z,18.00
2022-08-02T06:00:15.551Z,18.00
2022-08-02T06:02:56.469Z,18.00
2022-08-02T06:05:23.133Z,18.10
2022-08-02T06:07:50.461Z,18.20
2022-08-02T06:10:20.165Z,18.20
2022-08-02T06:12:49.658Z,18.30
2022-08-02T06:15:17.386Z,18.40
2022-08-02T06:17:45.526Z,18.50
2022-08-02T06:20:12.606Z,18.60
2022-08-02T06:22:43.314Z,18.70
2022-08-02T06:25:50.452Z,18.80
2022-08-02T06:28:01.031Z,18.80
2022-08-02T06:30:27.869Z,18.90
2022-08-02T06:32:54.638Z,19.00
2022-08-02T06:35:21.383Z,19.00
2022-08-02T06:37:59.447Z,19.10
2022-08-02T06:40:56.006Z,19.20
2022-08-02T06:43:35.917Z,19.30
2022-08-02T06:46:57.089Z,19.30
2022-08-02T06:48:52.550Z,19.40
2022-08-02T06:51:19.248Z,19.40
2022-08-02T06:53:45.905Z,19.50
2022-08-02T06:56:12.607Z,19.60
2022-08-02T06:58:39.266Z,19.60
2022-08-02T07:01:06.045Z,19.70
2022-08-02T07:03:36.077Z,19.70
2022-08-02T07:06:02.848Z,19.80
2022-08-02T07:08:29.519Z,19.80
2022-08-02T07:10:59.951Z,19.80
2022-08-02T07:13:30.036Z,19.90
2022-08-02T07:15:56.754Z,19.90
2022-08-02T07:18:24.056Z,20.00
2022-08-02T07:20:50.891Z,20.00
2022-08-02T07:23:17.593Z,20.10
2022-08-02T07:26:02.324Z,20.10
2022-08-02T07:28:30.281Z,20.20
2022-08-02T07:30:56.908Z,20.30
2022-08-02T07:33:37.357Z,20.30
2022-08-02T07:36:09.572Z,20.50
2022-08-02T07:38:37.478Z,20.80
2022-08-02T07:41:04.447Z,21.20
2022-08-02T07:43:31.403Z,21.60
2022-08-02T07:46:00.975Z,21.90
2022-08-02T07:48:27.937Z,22.30
2022-08-02T07:50:54.556Z,22.60
2022-08-02T07:53:21.221Z,22.80
2022-08-02T07:56:07.849Z,23.00
2022-08-02T07:58:34.504Z,23.30
2022-08-02T08:01:01.223Z,23.50
2022-08-02T08:03:27.913Z,23.70
2022-08-02T08:05:54.523Z,23.90
2022-08-02T08:08:21.147Z,24.20
2022-08-02T08:10:48.625Z,24.40
2022-08-02T08:13:15.581Z,24.60
2022-08-02T08:15:42.362Z,24.90
2022-08-02T08:18:18.693Z,25.20
2022-08-02T08:20:45.320Z,25.30
2022-08-02T08:23:12.015Z,25.50
2022-08-02T08:25:39.569Z,25.60
2022-08-02T08:28:07.864Z,25.80
2022-08-02T08:30:34.504Z,25.90
2022-08-02T08:33:01.222Z,26.00
2022-08-02T08:35:27.850Z,26.00
2022-08-02T08:37:54.465Z,26.30
2022-08-02T08:40:21.084Z,26.40
2022-08-02T08:42:47.733Z,26.60
2022-08-02T08:45:14.357Z,26.70
2022-08-02T08:47:41.468Z,26.90
2022-08-02T08:50:14.784Z,27.00
2022-08-02T08:53:05.004Z,27.00
2022-08-02T08:55:32.457Z,27.20
2022-08-02T08:57:59.861Z,27.20
2022-08-02T09:00:26.628Z,27.30
2022-08-02T09:02:53.528Z,27.30
2022-08-02T09:05:20.164Z,27.40
2022-08-02T09:07:51.222Z,27.50
2022-08-02T09:10:48.016Z,27.70
2022-08-02T09:13:31.175Z,27.80
2022-08-02T09:16:12.314Z,27.80
2022-08-02T09:18:42.851Z,28.00
2022-08-02T09:21:09.925Z,28.10
2022-08-02T09:23:41.463Z,28.20
2022-08-02T09:26:09.863Z,28.30
2022-08-02T09:28:38.162Z,28.20
2022-08-02T09:31:06.993Z,28.00
2022-08-02T09:33:33.798Z,27.90
2022-08-02T09:36:06.028Z,28.00
2022-08-02T09:38:35.416Z,28.00
2022-08-02T09:41:02.510Z,28.20
2022-08-02T09:43:35.977Z,28.30
2022-08-02T09:46:17.978Z,28.40
2022-08-02T09:48:58.597Z,28.60
2022-08-02T09:51:26.842Z,28.90
2022-08-02T09:54:11.542Z,28.80
2022-08-02T09:56:46.318Z,28.70
2022-08-02T09:59:13.713Z,28.80
2022-08-02T10:01:51.296Z,28.80
2022-08-02T10:04:26.721Z,28.60
2022-08-02T10:06:53.809Z,28.10
2022-08-02T10:09:20.661Z,27.80
2022-08-02T10:11:47.376Z,27.60
2022-08-02T10:14:14.021Z,27.50
2022-08-02T10:16:42.269Z,27.60
2022-08-02T10:19:08.976Z,27.70
2022-08-02T10:21:56.737Z,27.90
2022-08-02T10:24:27.185Z,28.10
2022-08-02T10:26:53.961Z,28.40
2022-08-02T10:29:24.451Z,28.70
2022-08-02T10:32:29.001Z,28.90
2022-08-02T10:35:20.198Z,29.20
2022-08-02T10:37:50.173Z,29.40
2022-08-02T10:40:16.807Z,29.60
2022-08-02T10:42:45.658Z,29.70
2022-08-02T10:45:13.677Z,29.70
2022-08-02T10:47:40.465Z,29.60
2022-08-02T10:50:07.480Z,29.50
2022-08-02T10:52:34.160Z,29.40
2022-08-02T10:55:02.813Z,29.40
2022-08-02T10:57:37.432Z,29.60
2022-08-02T11:00:17.250Z,29.90
2022-08-02T11:02:47.240Z,30.30
2022-08-02T11:05:43.249Z,30.50
2022-08-02T11:08:20.320Z,30.60
2022-08-02T11:10:47.132Z,30.80
2022-08-02T11:13:15.545Z,31.10
2022-08-02T11:15:54.018Z,31.40
2022-08-02T11:18:21.225Z,31.70
2022-08-02T11:20:47.921Z,32.00
2022-08-02T11:23:44.782Z,32.20
2022-08-02T11:26:30.657Z,32.40
2022-08-02T11:28:58.357Z,32.60
2022-08-02T11:31:25.769Z,32.80
2022-08-02T11:33:52.444Z,33.00
2022-08-02T11:36:19.133Z,33.20
2022-08-02T11:38:46.010Z,33.10
2022-08-02T11:41:46.295Z,33.00
2022-08-02T11:44:09.498Z,32.80
2022-08-02T11:46:36.729Z,32.90
2022-08-02T11:49:17.121Z,32.80
2022-08-02T11:51:56.160Z,32.90
2022-08-02T11:54:27.376Z,32.80
2022-08-02T11:56:54.039Z,32.60
2022-08-02T11:59:21.704Z,32.30
2022-08-02T12:01:48.507Z,32.00
2022-08-02T12:04:19.474Z,31.90
2022-08-02T12:06:56.962Z,31.90
2022-08-02T12:09:23.848Z,31.80
2022-08-02T12:11:50.585Z,31.70
2022-08-02T12:14:17.350Z,31.90
2022-08-02T12:16:43.993Z,32.30
2022-08-02T12:19:10.657Z,32.80
2022-08-02T12:21:41.096Z,33.10
2022-08-02T12:24:07.758Z,33.20
2022-08-02T12:26:44.360Z,33.10
2022-08-02T12:29:11.018Z,33.10
2022-08-02T12:31:56.257Z,33.20
2022-08-02T12:34:31.322Z,33.40
2022-08-02T12:37:04.898Z,33.60
2022-08-02T12:39:45.781Z,33.70
2022-08-02T12:42:15.979Z,33.80
2022-08-02T12:44:56.653Z,33.80
2022-08-02T12:47:23.299Z,33.90
2022-08-02T12:50:18.006Z,34.00
2022-08-02T12:52:46.894Z,33.90
2022-08-02T12:55:21.842Z,34.00
2022-08-02T12:58:00.468Z,34.20
2022-08-02T13:00:32.554Z,34.30
2022-08-02T13:02:59.267Z,34.40
2022-08-02T13:05:26.290Z,34.50
2022-08-02T13:07:56.865Z,34.60
2022-08-02T13:10:23.776Z,34.70
2022-08-02T13:12:50.677Z,34.70
2022-08-02T13:15:48.801Z,34.80
2022-08-02T13:18:06.261Z,34.70
2022-08-02T13:20:32.926Z,34.50
2022-08-02T13:23:04.094Z,34.60
2022-08-02T13:25:31.011Z,34.70
2022-08-02T13:27:57.662Z,34.70
2022-08-02T13:30:24.308Z,34.80
2022-08-02T13:32:52.132Z,34.80
2022-08-02T13:35:18.802Z,34.70
2022-08-02T13:37:45.430Z,34.40
2022-08-02T13:40:21.759Z,34.20
2022-08-02T13:42:55.303Z,34.10
2022-08-02T13:45:22.396Z,34.10
2022-08-02T13:48:04.057Z,34.20
2022-08-02T13:50:42.660Z,34.40
2022-08-02T13:53:09.353Z,34.30
2022-08-02T13:55:36.008Z,34.10
2022-08-02T13:58:02.752Z,34.10
2022-08-02T14:00:35.188Z,34.20
2022-08-02T14:03:06.030Z,34.30
2022-08-02T14:05:47.466Z,34.20
2022-08-02T14:08:16.939Z,34.10
2022-08-02T14:10:44.375Z,34.20
2022-08-02T14:13:11.018Z,34.40
2022-08-02T14:15:37.660Z,34.40
2022-08-02T14:18:04.311Z,34.40
2022-08-02T14:20:30.930Z,34.50
2022-08-02T14:22:57.584Z,34.30
2022-08-02T14:25:24.214Z,34.20
2022-08-02T14:27:50.899Z,34.00
2022-08-02T14:30:17.858Z,33.90
2022-08-02T14:32:44.561Z,33.80
2022-08-02T14:35:11.226Z,33.90
2022-08-02T14:37:37.925Z,33.90
2022-08-02T14:40:05.114Z,33.80
2022-08-02T14:42:31.858Z,33.60
2022-08-02T14:44:58.617Z,33.60
2022-08-02T14:47:25.276Z,33.60
2022-08-02T14:49:51.993Z,33.60
2022-08-02T14:52:19.138Z,33.70
2022-08-02T14:54:46.805Z,33.60
2022-08-02T14:57:13.632Z,33.60
2022-08-02T14:59:42.209Z,33.40
2022-08-02T15:02:09.750Z,33.30
2022-08-02T15:04:42.939Z,33.30
2022-08-02T15:07:10.614Z,33.30
2022-08-02T15:09:39.476Z,33.30
2022-08-02T15:12:07.622Z,33.20
2022-08-02T15:14:34.286Z,33.10
2022-08-02T15:17:00.946Z,33.00
2022-08-02T15:19:40.880Z,32.90
2022-08-02T15:22:16.858Z,32.80
2022-08-02T15:24:46.791Z,32.80
2022-08-02T15:27:13.878Z,32.70
2022-08-02T15:29:41.517Z,32.70
2022-08-02T15:32:08.218Z,32.60
2022-08-02T15:34:35.885Z,32.50
2022-08-02T15:37:02.627Z,32.50
2022-08-02T15:39:29.289Z,32.40
2022-08-02T15:41:56.109Z,32.40
2022-08-02T15:44:22.715Z,32.40
2022-08-02T15:46:49.446Z,32.40
2022-08-02T15:49:16.104Z,32.50
2022-08-02T15:51:42.852Z,32.60
2022-08-02T15:54:09.473Z,32.60
2022-08-02T15:56:36.145Z,32.50
2022-08-02T15:59:03.006Z,32.50
2022-08-02T16:01:37.374Z,32.50
2022-08-02T16:04:06.231Z,32.50
2022-08-02T16:06:33.140Z,32.50
2022-08-02T16:08:59.877Z,32.40
2022-08-02T16:11:26.547Z,32.20
2022-08-02T16:13:54.260Z,32.20
2022-08-02T16:16:29.723Z,32.10
2022-08-02T16:18:56.409Z,32.00
2022-08-02T16:21:23.503Z,32.00
2022-08-02T16:23:58.604Z,31.80
2022-08-02T16:26:27.594Z,31.70
2022-08-02T16:28:54.321Z,31.70
2022-08-02T16:31:20.978Z,31.60
2022-08-02T16:33:47.703Z,31.50
2022-08-02T16:36:14.667Z,31.50
2022-08-02T16:38:46.187Z,31.40
2022-08-02T16:41:12.917Z,31.30
2022-08-02T16:43:43.045Z,31.10
2022-08-02T16:46:10.243Z,31.00
2022-08-02T16:48:37.020Z,30.80
2022-08-02T16:51:04.572Z,30.70
2022-08-02T16:53:37.143Z,30.60
2022-08-02T16:56:18.122Z,30.60
2022-08-02T16:58:47.663Z,30.50
2022-08-02T17:01:14.759Z,30.40
2022-08-02T17:03:56.829Z,30.40
2022-08-02T17:09:11.122Z,30.20
2022-08-02T17:11:57.745Z,30.10
2022-08-02T17:14:26.947Z,30.10
2022-08-02T17:16:53.569Z,30.10
2022-08-02T17:19:20.404Z,30.00
2022-08-02T17:21:47.082Z,30.00
2022-08-02T17:24:13.859Z,29.90
2022-08-02T17:26:40.500Z,29.80
2022-08-02T17:29:15.757Z,29.80
2022-08-02T17:32:05.224Z,29.70
2022-08-02T17:34:35.424Z,29.70
2022-08-02T17:37:02.116Z,29.60
2022-08-02T17:39:33.746Z,29.60
2022-08-02T17:42:09.226Z,29.50
2022-08-02T17:44:36.895Z,29.40
2022-08-02T17:47:08.660Z,29.40
2022-08-02T17:49:44.144Z,29.30
2022-08-02T17:52:48.068Z,29.20
2022-08-02T17:55:01.182Z,29.10
2022-08-02T17:57:57.234Z,29.10
2022-08-02T18:00:17.177Z,29.00
2022-08-02T18:02:43.828Z,28.90
2022-08-02T18:05:20.295Z,28.80
2022-08-02T18:07:53.141Z,28.70
2022-08-02T18:10:23.492Z,28.70
2022-08-02T18:12:52.761Z,28.60
2022-08-02T18:15:22.758Z,28.50
2022-08-02T18:17:51.868Z,28.50
2022-08-02T18:20:21.568Z,28.50
2022-08-02T18:22:55.578Z,28.40
2022-08-02T18:25:37.554Z,28.20
2022-08-02T18:28:12.085Z,28.10
2022-08-02T18:30:39.020Z,27.90
2022-08-02T18:33:57.556Z,27.80
2022-08-02T18:35:52.806Z,27.70
2022-08-02T18:38:22.958Z,27.60
2022-08-02T18:40:50.580Z,27.50
2022-08-02T18:43:18.302Z,27.40
2022-08-02T18:46:05.178Z,27.20
2022-08-02T18:48:31.603Z,27.20
2022-08-02T18:51:08.594Z,27.10
2022-08-02T18:53:41.406Z,27.10
2022-08-02T18:56:19.176Z,27.00
2022-08-02T18:58:48.098Z,27.00
2022-08-02T19:01:31.377Z,27.00
2022-08-02T19:04:00.402Z,26.90
2022-08-02T19:06:28.839Z,26.90
2022-08-02T19:09:05.778Z,26.90
2022-08-02T19:11:40.931Z,26.90
2022-08-02T19:14:10.354Z,26.80
2022-08-02T19:16:38.136Z,26.80
2022-08-02T19:19:08.083Z,26.80
2022-08-02T19:22:17.246Z,26.70
2022-08-02T19:24:21.604Z,26.70
2022-08-02T19:26:51.984Z,26.60
2022-08-02T19:29:42.329Z,26.50
2022-08-02T19:32:39.251Z,26.50
2022-08-02T19:34:59.285Z,26.30
2022-08-02T19:37:26.016Z,26.10
2022-08-02T19:40:04.231Z,26.10
2022-08-02T19:43:05.294Z,26.00
2022-08-02T19:45:20.325Z,25.90
2022-08-02T19:48:09.784Z,25.80
2022-08-02T19:50:39.582Z,25.70
2022-08-02T19:53:10.832Z,25.70
2022-08-02T19:55:59.998Z,25.70
2022-08-02T19:58:25.160Z,25.70
2022-08-02T20:00:52.392Z,25.60
2022-08-02T20:03:19.223Z,25.60
2022-08-02T20:06:06.219Z,25.60
2022-08-02T20:08:35.829Z,25.50
2022-08-02T20:11:05.787Z,25.40
2022-08-02T20:13:47.362Z,25.40
2022-08-02T20:16:20.977Z,25.30
2022-08-02T20:18:54.437Z,25.20
2022-08-02T20:21:34.364Z,25.20
2022-08-02T20:24:07.154Z,25.20
2022-08-02T20:26:35.313Z,25.10
2022-08-02T20:29:03.565Z,25.10
2022-08-02T20:31:30.696Z,25.10
2022-08-02T20:33:57.543Z,25.00
2022-08-02T20:36:25.424Z,25.00
2022-08-02T20:38:55.414Z,24.90
2022-08-02T20:41:37.210Z,24.80
2022-08-02T20:44:15.363Z,24.70
2022-08-02T20:46:59.250Z,24.60
2022-08-02T20:49:41.053Z,24.60
2022-08-02T20:52:23.851Z,24.60
2022-08-02T20:54:53.795Z,24.50
2022-08-02T20:57:20.566Z,24.50
2022-08-02T21:00:07.767Z,24.40
2022-08-02T21:02:37.960Z,24.40
2022-08-02T21:05:17.137Z,24.30
2022-08-02T21:07:47.832Z,24.20
2022-08-02T21:10:14.900Z,24.10
2022-08-02T21:12:41.749Z,24.00
2022-08-02T21:15:12.511Z,23.90
2022-08-02T21:17:43.597Z,23.90
2022-08-02T21:20:16.812Z,23.80
2022-08-02T21:22:50.408Z,23.70
2022-08-02T21:25:20.013Z,23.80
2022-08-02T21:27:52.826Z,23.70
2022-08-02T21:30:20.767Z,23.70
2022-08-02T21:32:51.063Z,23.70
2022-08-02T21:35:18.163Z,23.70
2022-08-02T21:37:45.270Z,23.60
2022-08-02T21:40:12.630Z,23.60
2022-08-02T21:42:39.321Z,23.60
2022-08-02T21:45:17.449Z,23.60
2022-08-02T21:47:46.813Z,23.60
2022-08-02T21:50:16.488Z,23.60
2022-08-02T21:52:52.341Z,23.60
2022-08-02T21:58:05.868Z,23.50
2022-08-02T22:00:33.599Z,23.50
2022-08-02T22:03:00.287Z,23.50
2022-08-02T22:05:48.831Z,23.50
2022-08-02T22:08:17.444Z,23.50
2022-08-02T22:10:44.086Z,23.50
2022-08-02T22:13:16.041Z,23.50
2022-08-02T22:15:43.039Z,23.50
2022-08-02T22:18:14.371Z,23.50
2022-08-02T22:20:41.256Z,23.40
2022-08-02T22:23:13.037Z,23.50
2022-08-02T22:25:49.647Z,23.40
2022-08-02T22:28:39.373Z,23.40
2022-08-02T22:31:03.783Z,23.30
2022-08-02T22:33:33.173Z,23.20
2022-08-02T22:36:00.643Z,23.20
2022-08-02T22:38:27.377Z,23.20
2022-08-02T22:40:56.698Z,23.20
2022-08-02T22:43:23.610Z,23.10
2022-08-02T22:45:50.766Z,23.10
2022-08-02T22:48:17.471Z,23.10
2022-08-02T22:50:44.162Z,23.00
2022-08-02T22:53:10.867Z,23.00
2022-08-02T22:55:41.452Z,23.00
2022-08-02T22:58:09.194Z,22.90
2022-08-02T22:58:50.583Z,30.30
2022-08-02T22:59:10.572Z,23.60
2022-08-02T23:00:36.027Z,22.90
2022-08-02T23:03:03.086Z,22.90
2022-08-02T23:05:33.559Z,22.90
2022-08-02T23:08:00.222Z,22.80
2022-08-02T23:10:26.932Z,22.80
2022-08-02T23:12:53.610Z,22.80
2022-08-02T23:15:20.290Z,22.70
2022-08-02T23:17:47.011Z,22.70
2022-08-02T23:20:13.844Z,22.70
2022-08-02T23:22:40.471Z,22.70
2022-08-02T23:25:07.494Z,22.60
2022-08-02T23:27:34.313Z,22.60
2022-08-02T23:30:00.999Z,22.50
2022-08-02T23:32:27.917Z,22.50
2022-08-02T23:34:55.413Z,22.50
2022-08-02T23:37:22.096Z,22.40
2022-08-02T23:39:48.717Z,22.40
2022-08-02T23:42:15.741Z,22.40
2022-08-02T23:44:42.723Z,22.40
2022-08-02T23:47:09.353Z,22.40
2022-08-02T23:49:36.124Z,22.30
2022-08-02T23:52:02.986Z,22.30
2022-08-02T23:54:29.626Z,22.20
2022-08-02T23:56:56.347Z,22.20
2022-08-02T23:59:23.080Z,22.10
